createdAt,value
2023-03-11T00:00:04.950Z,86
2023-03-11T00:01:00.257Z,86
2023-03-11T00:02:00.405Z,86
2023-03-11T00:03:00.249Z,86
2023-03-11T00:04:00.320Z,86
2023-03-11T00:05:04.751Z,85
2023-03-11T00:06:00.373Z,85
2023-03-11T00:07:00.255Z,85
2023-03-11T00:08:00.375Z,85
2023-03-11T00:09:00.288Z,85
2023-03-11T00:10:04.008Z,85
2023-03-11T00:11:00.311Z,85
2023-03-11T00:12:00.407Z,85
2023-03-11T00:13:00.301Z,85
2023-03-11T00:14:00.439Z,85
2023-03-11T00:15:05.292Z,85
2023-03-11T00:16:00.400Z,85
2023-03-11T00:17:00.337Z,85
2023-03-11T00:18:00.464Z,85
2023-03-11T00:19:00.358Z,85
2023-03-11T00:20:05.105Z,85
2023-03-11T00:21:00.384Z,85
2023-03-11T00:22:00.455Z,85
2023-03-11T00:23:00.379Z,86
2023-03-11T00:24:00.457Z,86
2023-03-11T00:25:04.867Z,85
2023-03-11T00:26:00.472Z,85
2023-03-11T00:27:00.393Z,85
2023-03-11T00:28:00.485Z,85
2023-03-11T00:29:00.397Z,85
2023-03-11T00:30:05.223Z,85
2023-03-11T00:31:00.433Z,85
2023-03-11T00:32:00.515Z,85
2023-03-11T00:33:00.428Z,85
2023-03-11T00:34:00.514Z,85
2023-03-11T00:35:04.917Z,85
2023-03-11T00:36:00.586Z,85
2023-03-11T00:37:00.455Z,85
2023-03-11T00:38:00.548Z,85
2023-03-11T00:39:00.496Z,85
2023-03-11T00:40:05.195Z,85
2023-03-11T00:41:00.463Z,85
2023-03-11T00:42:00.573Z,85
2023-03-11T00:43:00.486Z,84
2023-03-11T00:44:00.604Z,84
2023-03-11T00:45:05.079Z,84
2023-03-11T00:46:00.644Z,84
2023-03-11T00:47:00.515Z,84
2023-03-11T00:48:00.619Z,84
2023-03-11T00:49:00.514Z,84
2023-03-11T00:50:05.923Z,84
2023-03-11T00:51:00.550Z,84
2023-03-11T00:52:00.618Z,84
2023-03-11T00:53:00.545Z,84
2023-03-11T00:54:00.642Z,84
2023-03-11T00:55:04.996Z,84
2023-03-11T00:56:00.671Z,84
2023-03-11T00:57:00.612Z,84
2023-03-11T00:58:00.649Z,84
2023-03-11T00:59:00.579Z,84
2023-03-11T01:00:05.525Z,84
2023-03-11T01:01:00.636Z,84
2023-03-11T01:02:00.872Z,84
2023-03-11T01:03:00.677Z,84
2023-03-11T01:04:00.707Z,84
2023-03-11T01:05:04.281Z,84
2023-03-11T01:06:00.724Z,84
2023-03-11T01:07:00.637Z,84
2023-03-11T01:08:00.788Z,84
2023-03-11T01:09:00.675Z,84
2023-03-11T01:10:05.327Z,84
2023-03-11T01:11:00.697Z,84
2023-03-11T01:12:00.776Z,84
2023-03-11T01:13:00.687Z,84
2023-03-11T01:14:00.814Z,84
2023-03-11T01:15:05.234Z,84
2023-03-11T01:16:00.831Z,84
2023-03-11T01:17:00.705Z,84
2023-03-11T01:18:00.846Z,84
2023-03-11T01:19:00.720Z,84
2023-03-11T01:20:05.514Z,84
2023-03-11T01:21:00.734Z,84
2023-03-11T01:22:00.826Z,84
2023-03-11T01:23:00.741Z,84
2023-03-11T01:24:00.845Z,84
2023-03-11T01:25:05.219Z,84
2023-03-11T01:26:00.853Z,84
2023-03-11T01:27:00.778Z,84
2023-03-11T01:28:00.833Z,84
2023-03-11T01:29:00.803Z,84
2023-03-11T01:30:05.460Z,84
2023-03-11T01:31:00.845Z,84
2023-03-11T01:32:00.923Z,84
2023-03-11T01:33:00.814Z,84
2023-03-11T01:34:00.982Z,84
2023-03-11T01:35:04.240Z,84
2023-03-11T01:36:00.956Z,84
2023-03-11T01:37:00.844Z,84
2023-03-11T01:38:00.956Z,84
2023-03-11T01:39:00.870Z,84
2023-03-11T01:40:05.549Z,84
2023-03-11T01:41:00.901Z,84
2023-03-11T01:42:00.970Z,84
2023-03-11T01:43:00.881Z,84
2023-03-11T01:44:01.006Z,84
2023-03-11T01:45:08.050Z,84
2023-03-11T01:46:01.057Z,84
2023-03-11T01:47:00.924Z,84
2023-03-11T01:48:01.025Z,84
2023-03-11T01:49:00.961Z,84
2023-03-11T01:50:04.655Z,84
2023-03-11T01:51:00.985Z,84
2023-03-11T01:52:01.021Z,84
2023-03-11T01:53:00.986Z,84
2023-03-11T01:54:01.062Z,84
2023-03-11T01:55:05.639Z,84
2023-03-11T01:56:01.074Z,84
2023-03-11T01:57:01.004Z,84
2023-03-11T01:58:01.113Z,84
2023-03-11T01:59:00.984Z,84
2023-03-11T02:00:05.910Z,84
2023-03-11T02:01:01.060Z,84
2023-03-11T02:02:01.168Z,84
2023-03-11T02:03:01.199Z,84
2023-03-11T02:04:01.131Z,84
2023-03-11T02:05:04.527Z,84
2023-03-11T02:06:01.256Z,84
2023-03-11T02:07:01.065Z,84
2023-03-11T02:08:01.196Z,84
2023-03-11T02:09:01.109Z,84
2023-03-11T02:10:05.888Z,84
2023-03-11T02:11:01.125Z,84
2023-03-11T02:12:02.636Z,85
2023-03-11T02:13:01.156Z,85
2023-03-11T02:14:01.218Z,85
2023-03-11T02:15:05.632Z,84
2023-03-11T02:16:01.283Z,84
2023-03-11T02:17:01.166Z,85
2023-03-11T02:18:01.303Z,85
2023-03-11T02:19:01.176Z,85
2023-03-11T02:20:05.895Z,85
2023-03-11T02:21:01.196Z,85
2023-03-11T02:22:01.305Z,85
2023-03-11T02:23:01.190Z,85
2023-03-11T02:24:01.305Z,85
2023-03-11T02:25:04.665Z,85
2023-03-11T02:26:00.298Z,85
2023-03-11T02:27:00.244Z,85
2023-03-11T02:28:00.325Z,85
2023-03-11T02:29:00.233Z,85
2023-03-11T02:30:05.022Z,85
2023-03-11T02:31:00.292Z,85
2023-03-11T02:32:00.360Z,85
2023-03-11T02:33:00.285Z,85
2023-03-11T02:34:00.372Z,85
2023-03-11T02:35:03.732Z,85
2023-03-11T02:36:00.664Z,85
2023-03-11T02:37:00.295Z,85
2023-03-11T02:38:00.402Z,85
2023-03-11T02:39:00.315Z,85
2023-03-11T02:40:05.692Z,85
2023-03-11T02:41:00.346Z,85
2023-03-11T02:42:00.450Z,85
2023-03-11T02:43:00.339Z,85
2023-03-11T02:44:00.449Z,85
2023-03-11T02:45:04.000Z,85
2023-03-11T02:46:00.462Z,85
2023-03-11T02:47:00.397Z,85
2023-03-11T02:48:00.489Z,85
2023-03-11T02:49:00.374Z,85
2023-03-11T02:50:05.174Z,85
2023-03-11T02:51:00.409Z,85
2023-03-11T02:52:00.470Z,85
2023-03-11T02:53:00.401Z,85
2023-03-11T02:54:00.550Z,85
2023-03-11T02:55:03.956Z,85
2023-03-11T02:56:00.484Z,85
2023-03-11T02:57:00.424Z,85
2023-03-11T02:58:00.494Z,85
2023-03-11T02:59:00.422Z,85
2023-03-11T03:00:05.206Z,85
2023-03-11T03:01:00.497Z,85
2023-03-11T03:02:00.528Z,85
2023-03-11T03:03:00.477Z,85
2023-03-11T03:04:00.642Z,85
2023-03-11T03:05:04.070Z,85
2023-03-11T03:06:00.582Z,85
2023-03-11T03:07:00.489Z,85
2023-03-11T03:08:00.633Z,85
2023-03-11T03:09:00.525Z,85
2023-03-11T03:10:05.324Z,85
2023-03-11T03:11:00.540Z,85
2023-03-11T03:12:00.671Z,85
2023-03-11T03:13:00.555Z,85
2023-03-11T03:14:00.637Z,85
2023-03-11T03:15:05.109Z,85
2023-03-11T03:16:00.670Z,85
2023-03-11T03:17:00.794Z,84
2023-03-11T03:18:00.690Z,84
2023-03-11T03:19:00.587Z,84
2023-03-11T03:20:05.383Z,84
2023-03-11T03:21:00.591Z,84
2023-03-11T03:22:00.680Z,84
2023-03-11T03:23:00.610Z,84
2023-03-11T03:24:00.713Z,84
2023-03-11T03:25:04.196Z,84
2023-03-11T03:26:00.713Z,84
2023-03-11T03:27:00.663Z,84
2023-03-11T03:28:00.706Z,84
2023-03-11T03:29:00.624Z,84
2023-03-11T03:30:05.301Z,84
2023-03-11T03:31:00.640Z,84
2023-03-11T03:32:00.849Z,84
2023-03-11T03:33:00.690Z,83
2023-03-11T03:34:00.825Z,83
2023-03-11T03:35:06.016Z,83
2023-03-11T03:36:00.849Z,83
2023-03-11T03:37:00.750Z,83
2023-03-11T03:38:00.776Z,83
2023-03-11T03:39:00.713Z,83
2023-03-11T03:40:04.546Z,83
2023-03-11T03:41:00.702Z,83
2023-03-11T03:42:00.812Z,83
2023-03-11T03:43:00.720Z,83
2023-03-11T03:44:00.813Z,83
2023-03-11T03:45:05.309Z,83
2023-03-11T03:46:00.868Z,83
2023-03-11T03:47:00.788Z,83
2023-03-11T03:48:00.847Z,83
2023-03-11T03:49:00.736Z,83
2023-03-11T03:50:05.482Z,83
2023-03-11T03:51:00.794Z,83
2023-03-11T03:52:00.839Z,83
2023-03-11T03:53:00.776Z,83
2023-03-11T03:54:00.873Z,83
2023-03-11T03:55:04.286Z,83
2023-03-11T03:56:00.869Z,83
2023-03-11T03:57:00.833Z,83
2023-03-11T03:58:00.906Z,83
2023-03-11T03:59:00.796Z,83
2023-03-11T04:00:05.548Z,83
2023-03-11T04:01:00.828Z,83
2023-03-11T04:02:00.969Z,83
2023-03-11T04:03:00.948Z,83
2023-03-11T04:04:00.991Z,83
2023-03-11T04:05:05.460Z,83
2023-03-11T04:06:00.955Z,83
2023-03-11T04:07:00.889Z,83
2023-03-11T04:08:00.958Z,83
2023-03-11T04:09:00.940Z,83
2023-03-11T04:10:05.561Z,83
2023-03-11T04:11:00.905Z,83
2023-03-11T04:12:00.983Z,83
2023-03-11T04:13:00.930Z,83
2023-03-11T04:14:01.053Z,83
2023-03-11T04:15:04.460Z,83
2023-03-11T04:16:01.006Z,83
2023-03-11T04:17:01.025Z,83
2023-03-11T04:18:01.060Z,83
2023-03-11T04:19:00.976Z,83
2023-03-11T04:20:05.757Z,83
2023-03-11T04:21:00.981Z,83
2023-03-11T04:22:01.069Z,83
2023-03-11T04:23:00.999Z,83
2023-03-11T04:24:01.086Z,83
2023-03-11T04:25:04.496Z,83
2023-03-11T04:26:01.100Z,83
2023-03-11T04:27:01.022Z,83
2023-03-11T04:28:01.102Z,84
2023-03-11T04:29:01.014Z,84
2023-03-11T04:30:06.643Z,84
2023-03-11T04:31:01.079Z,84
2023-03-11T04:32:01.129Z,84
2023-03-11T04:33:01.060Z,84
2023-03-11T04:34:01.116Z,84
2023-03-11T04:35:04.534Z,84
2023-03-11T04:36:01.240Z,84
2023-03-11T04:37:01.073Z,84
2023-03-11T04:38:01.314Z,84
2023-03-11T04:39:01.091Z,84
2023-03-11T04:40:05.857Z,84
2023-03-11T04:41:01.078Z,84
2023-03-11T04:42:03.891Z,84
2023-03-11T04:43:01.099Z,84
2023-03-11T04:44:01.242Z,84
2023-03-11T04:45:05.891Z,84
2023-03-11T04:46:01.391Z,84
2023-03-11T04:47:01.139Z,84
2023-03-11T04:48:01.254Z,84
2023-03-11T04:49:01.136Z,84
2023-03-11T04:50:05.899Z,84
2023-03-11T04:51:01.166Z,84
2023-03-11T04:52:01.278Z,84
2023-03-11T04:53:01.182Z,84
2023-03-11T04:54:01.289Z,84
2023-03-11T04:55:05.753Z,84
2023-03-11T04:56:01.301Z,84
2023-03-11T04:57:01.207Z,84
2023-03-11T04:58:01.299Z,84
2023-03-11T04:59:00.244Z,84
2023-03-11T05:00:05.024Z,84
2023-03-11T05:01:01.218Z,84
2023-03-11T05:02:01.353Z,84
2023-03-11T05:03:01.314Z,84
2023-03-11T05:04:00.302Z,84
2023-03-11T05:05:04.716Z,84
2023-03-11T05:06:00.407Z,84
2023-03-11T05:07:00.240Z,84
2023-03-11T05:08:00.359Z,84
2023-03-11T05:09:00.251Z,84
2023-03-11T05:10:05.063Z,84
2023-03-11T05:11:00.264Z,84
2023-03-11T05:12:00.352Z,84
2023-03-11T05:13:00.285Z,84
2023-03-11T05:14:00.371Z,84
2023-03-11T05:15:03.907Z,84
2023-03-11T05:16:00.391Z,84
2023-03-11T05:17:00.304Z,84
2023-03-11T05:18:00.464Z,84
2023-03-11T05:19:00.296Z,84
2023-03-11T05:20:05.018Z,84
2023-03-11T05:21:00.357Z,84
2023-03-11T05:22:00.406Z,84
2023-03-11T05:23:00.330Z,84
2023-03-11T05:24:00.426Z,85
2023-03-11T05:25:05.526Z,85
2023-03-11T05:26:00.453Z,85
2023-03-11T05:27:00.392Z,85
2023-03-11T05:28:00.443Z,85
2023-03-11T05:29:00.382Z,85
2023-03-11T05:30:05.243Z,85
2023-03-11T05:31:00.478Z,85
2023-03-11T05:32:00.480Z,85
2023-03-11T05:33:00.407Z,85
2023-03-11T05:34:00.519Z,85
2023-03-11T05:35:04.975Z,85
2023-03-11T05:36:00.538Z,85
2023-03-11T05:37:02.726Z,85
2023-03-11T05:38:00.509Z,85
2023-03-11T05:39:00.438Z,85
2023-03-11T05:40:05.192Z,85
2023-03-11T05:41:00.437Z,85
2023-03-11T05:42:00.541Z,85
2023-03-11T05:43:00.470Z,85
2023-03-11T05:44:00.537Z,85
2023-03-11T05:45:04.978Z,85
2023-03-11T05:46:00.590Z,85
2023-03-11T05:47:00.586Z,85
2023-03-11T05:48:00.604Z,85
2023-03-11T05:49:00.527Z,85
2023-03-11T05:50:04.282Z,85
2023-03-11T05:51:00.521Z,85
2023-03-11T05:52:00.609Z,85
2023-03-11T05:53:00.520Z,85
2023-03-11T05:54:03.753Z,85
2023-03-11T05:55:05.023Z,85
2023-03-11T05:56:00.615Z,85
2023-03-11T05:57:00.569Z,85
2023-03-11T05:58:00.693Z,85
2023-03-11T05:59:00.532Z,85
2023-03-11T06:00:06.169Z,85
2023-03-11T06:01:00.601Z,85
2023-03-11T06:02:00.657Z,86
2023-03-11T06:03:00.627Z,86
2023-03-11T06:04:00.740Z,86
2023-03-11T06:05:08.061Z,86
2023-03-11T06:06:00.727Z,86
2023-03-11T06:07:00.617Z,86
2023-03-11T06:08:00.698Z,86
2023-03-11T06:09:00.641Z,85
2023-03-11T06:10:05.326Z,85
2023-03-11T06:11:00.638Z,85
2023-03-11T06:12:00.766Z,85
2023-03-11T06:13:00.645Z,85
2023-03-11T06:14:00.746Z,85
2023-03-11T06:15:04.366Z,85
2023-03-11T06:16:00.759Z,85
2023-03-11T06:17:00.676Z,85
2023-03-11T06:18:00.802Z,85
2023-03-11T06:19:00.728Z,85
2023-03-11T06:20:07.449Z,85
2023-03-11T06:21:00.715Z,85
2023-03-11T06:22:00.838Z,85
2023-03-11T06:23:00.701Z,85
2023-03-11T06:24:00.833Z,85
2023-03-11T06:25:05.164Z,85
2023-03-11T06:26:00.792Z,85
2023-03-11T06:27:00.746Z,85
2023-03-11T06:28:00.810Z,85
2023-03-11T06:29:00.736Z,85
2023-03-11T06:30:05.595Z,85
2023-03-11T06:31:00.759Z,85
2023-03-11T06:32:00.838Z,84
2023-03-11T06:33:00.796Z,84
2023-03-11T06:34:00.864Z,84
2023-03-11T06:35:05.304Z,84
2023-03-11T06:36:00.959Z,84
2023-03-11T06:37:00.803Z,84
2023-03-11T06:38:00.921Z,84
2023-03-11T06:39:00.833Z,84
2023-03-11T06:40:05.553Z,84
2023-03-11T06:41:00.840Z,84
2023-03-11T06:42:01.020Z,84
2023-03-11T06:43:00.869Z,84
2023-03-11T06:44:00.964Z,84
2023-03-11T06:45:05.470Z,84
2023-03-11T06:46:01.048Z,84
2023-03-11T06:47:00.889Z,83
2023-03-11T06:48:01.011Z,83
2023-03-11T06:49:00.907Z,83
2023-03-11T06:50:05.655Z,83
2023-03-11T06:51:00.919Z,83
2023-03-11T06:52:00.985Z,83
2023-03-11T06:53:00.924Z,82
2023-03-11T06:54:01.052Z,82
2023-03-11T06:55:05.373Z,82
2023-03-11T06:56:01.017Z,82
2023-03-11T06:57:00.958Z,81
2023-03-11T06:58:01.017Z,81
2023-03-11T06:59:00.945Z,80
2023-03-11T07:00:05.930Z,80
2023-03-11T07:01:01.062Z,80
2023-03-11T07:02:01.048Z,80
2023-03-11T07:03:01.011Z,80
2023-03-11T07:04:01.132Z,80
2023-03-11T07:05:05.542Z,80
2023-03-11T07:06:01.136Z,80
2023-03-11T07:07:01.042Z,79
2023-03-11T07:08:01.128Z,79
2023-03-11T07:09:01.062Z,79
2023-03-11T07:10:05.765Z,79
2023-03-11T07:11:01.098Z,79
2023-03-11T07:12:01.149Z,79
2023-03-11T07:13:01.062Z,79
2023-03-11T07:14:01.158Z,79
2023-03-11T07:15:06.321Z,79
2023-03-11T07:16:01.195Z,79
2023-03-11T07:17:01.252Z,79
2023-03-11T07:18:01.183Z,79
2023-03-11T07:19:01.102Z,79
2023-03-11T07:20:05.873Z,79
2023-03-11T07:21:01.137Z,79
2023-03-11T07:22:03.324Z,79
2023-03-11T07:23:01.133Z,79
2023-03-11T07:24:01.218Z,79
2023-03-11T07:25:05.576Z,79
2023-03-11T07:26:01.266Z,78
2023-03-11T07:27:01.166Z,78
2023-03-11T07:28:01.260Z,79
2023-03-11T07:29:01.186Z,79
2023-03-11T07:30:05.946Z,79
2023-03-11T07:31:01.203Z,79
2023-03-11T07:32:01.402Z,79
2023-03-11T07:33:01.230Z,78
2023-03-11T07:34:00.314Z,78
2023-03-11T07:35:05.096Z,78
2023-03-11T07:36:00.361Z,78
2023-03-11T07:37:00.204Z,78
2023-03-11T07:38:00.296Z,79
2023-03-11T07:39:02.544Z,79
2023-03-11T07:40:05.128Z,78
2023-03-11T07:41:00.252Z,78
2023-03-11T07:42:00.356Z,78
2023-03-11T07:43:00.259Z,78
2023-03-11T07:44:00.334Z,78
2023-03-11T07:45:04.869Z,78
2023-03-11T07:46:00.406Z,78
2023-03-11T07:47:00.267Z,78
2023-03-11T07:48:00.352Z,78
2023-03-11T07:49:00.280Z,78
2023-03-11T07:50:05.328Z,79
2023-03-11T07:51:00.293Z,79
2023-03-11T07:52:00.377Z,78
2023-03-11T07:53:00.289Z,78
2023-03-11T07:54:00.392Z,78
2023-03-11T07:55:03.942Z,78
2023-03-11T07:56:00.393Z,78
2023-03-11T07:57:00.322Z,78
2023-03-11T07:58:00.435Z,77
2023-03-11T07:59:00.313Z,77
2023-03-11T08:00:05.206Z,77
2023-03-11T08:01:00.355Z,77
2023-03-11T08:02:00.459Z,77
2023-03-11T08:03:00.359Z,77
2023-03-11T08:04:00.497Z,77
2023-03-11T08:05:04.823Z,77
2023-03-11T08:06:00.464Z,77
2023-03-11T08:07:00.386Z,77
2023-03-11T08:08:00.442Z,75
2023-03-11T08:09:00.400Z,75
2023-03-11T08:10:05.885Z,74
2023-03-11T08:11:00.390Z,74
2023-03-11T08:12:00.474Z,74
2023-03-11T08:13:00.453Z,75
2023-03-11T08:14:00.503Z,75
2023-03-11T08:15:04.832Z,75
2023-03-11T08:16:00.589Z,73
2023-03-11T08:17:00.427Z,73
2023-03-11T08:18:00.572Z,73
2023-03-11T08:19:00.455Z,72
2023-03-11T08:20:05.110Z,72
2023-03-11T08:21:00.465Z,72
2023-03-11T08:22:00.572Z,72
2023-03-11T08:23:00.474Z,71
2023-03-11T08:24:00.600Z,71
2023-03-11T08:25:04.238Z,71
2023-03-11T08:26:00.575Z,71
2023-03-11T08:27:00.510Z,71
2023-03-11T08:28:00.616Z,71
2023-03-11T08:29:00.517Z,71
2023-03-11T08:30:05.242Z,71
2023-03-11T08:31:00.560Z,70
2023-03-11T08:32:00.606Z,70
2023-03-11T08:33:00.539Z,70
2023-03-11T08:34:00.630Z,70
2023-03-11T08:35:03.961Z,70
2023-03-11T08:36:00.768Z,69
2023-03-11T08:37:00.543Z,69
2023-03-11T08:38:00.625Z,69
2023-03-11T08:39:00.801Z,68
2023-03-11T08:40:05.615Z,68
2023-03-11T08:41:00.584Z,68
2023-03-11T08:42:00.649Z,68
2023-03-11T08:43:00.580Z,68
2023-03-11T08:44:00.670Z,68
2023-03-11T08:45:04.138Z,68
2023-03-11T08:46:00.758Z,68
2023-03-11T08:47:00.601Z,68
2023-03-11T08:48:00.688Z,67
2023-03-11T08:49:01.304Z,67
2023-03-11T08:50:05.624Z,67
2023-03-11T08:51:00.650Z,66
2023-03-11T08:52:00.715Z,66
2023-03-11T08:53:00.661Z,66
2023-03-11T08:54:00.732Z,66
2023-03-11T08:55:05.136Z,66
2023-03-11T08:56:00.746Z,65
2023-03-11T08:57:00.682Z,66
2023-03-11T08:58:00.764Z,66
2023-03-11T08:59:00.675Z,66
2023-03-11T09:00:05.553Z,66
2023-03-11T09:01:00.721Z,65
2023-03-11T09:02:00.803Z,65
2023-03-11T09:03:00.910Z,65
2023-03-11T09:04:00.797Z,64
2023-03-11T09:05:05.937Z,64
2023-03-11T09:06:00.826Z,64
2023-03-11T09:07:00.728Z,64
2023-03-11T09:08:00.793Z,64
2023-03-11T09:09:00.725Z,64
2023-03-11T09:10:05.429Z,64
2023-03-11T09:11:00.733Z,64
2023-03-11T09:12:00.843Z,64
2023-03-11T09:13:00.732Z,64
2023-03-11T09:14:00.810Z,63
2023-03-11T09:15:05.161Z,63
2023-03-11T09:16:00.991Z,63
2023-03-11T09:17:00.760Z,63
2023-03-11T09:18:00.886Z,63
2023-03-11T09:19:00.807Z,62
2023-03-11T09:20:04.525Z,62
2023-03-11T09:21:00.801Z,62
2023-03-11T09:22:00.894Z,62
2023-03-11T09:23:00.826Z,62
2023-03-11T09:24:00.903Z,62
2023-03-11T09:25:05.330Z,62
2023-03-11T09:26:00.894Z,62
2023-03-11T09:27:00.841Z,62
2023-03-11T09:28:00.922Z,62
2023-03-11T09:29:00.825Z,62
2023-03-11T09:30:06.048Z,62
2023-03-11T09:31:00.938Z,61
2023-03-11T09:32:00.956Z,61
2023-03-11T09:33:00.867Z,61
2023-03-11T09:34:01.195Z,61
2023-03-11T09:35:05.515Z,61
2023-03-11T09:36:01.010Z,61
2023-03-11T09:37:00.876Z,59
2023-03-11T09:38:00.962Z,59
2023-03-11T09:39:00.905Z,59
2023-03-11T09:40:05.684Z,58
2023-03-11T09:41:00.903Z,58
2023-03-11T09:42:00.988Z,57
2023-03-11T09:43:00.924Z,57
2023-03-11T09:44:00.994Z,56
2023-03-11T09:45:05.451Z,56
2023-03-11T09:46:01.034Z,56
2023-03-11T09:47:01.032Z,57
2023-03-11T09:48:01.032Z,57
2023-03-11T09:49:00.956Z,57
2023-03-11T09:50:05.646Z,57
2023-03-11T09:51:00.965Z,57
2023-03-11T09:52:01.060Z,58
2023-03-11T09:53:00.970Z,58
2023-03-11T09:54:01.071Z,56
2023-03-11T09:55:05.509Z,56
2023-03-11T09:56:01.076Z,56
2023-03-11T09:57:01.021Z,54
2023-03-11T09:58:01.097Z,54
2023-03-11T09:59:01.013Z,54
2023-03-11T10:00:06.766Z,53
2023-03-11T10:01:01.076Z,53
2023-03-11T10:02:01.153Z,53
2023-03-11T10:03:01.091Z,53
2023-03-11T10:04:01.142Z,53
2023-03-11T10:05:04.861Z,52
2023-03-11T10:06:01.184Z,52
2023-03-11T10:07:01.074Z,53
2023-03-11T10:08:01.136Z,53
2023-03-11T10:09:01.083Z,53
2023-03-11T10:10:06.088Z,53
2023-03-11T10:11:01.105Z,53
2023-03-11T10:12:01.194Z,53
2023-03-11T10:13:01.086Z,55
2023-03-11T10:14:01.178Z,55
2023-03-11T10:15:05.619Z,55
2023-03-11T10:16:01.260Z,55
2023-03-11T10:17:01.125Z,55
2023-03-11T10:18:01.225Z,55
2023-03-11T10:19:01.174Z,55
2023-03-11T10:20:05.841Z,55
2023-03-11T10:21:01.182Z,55
2023-03-11T10:22:01.290Z,55
2023-03-11T10:23:01.156Z,55
2023-03-11T10:24:01.253Z,55
2023-03-11T10:25:04.848Z,56
2023-03-11T10:26:01.277Z,56
2023-03-11T10:27:01.199Z,56
2023-03-11T10:28:01.261Z,55
2023-03-11T10:29:00.194Z,55
2023-03-11T10:30:05.031Z,54
2023-03-11T10:31:00.217Z,54
2023-03-11T10:32:00.317Z,54
2023-03-11T10:33:00.238Z,54
2023-03-11T10:34:00.301Z,54
2023-03-11T10:35:04.894Z,52
2023-03-11T10:36:00.378Z,52
2023-03-11T10:37:00.233Z,52
2023-03-11T10:38:00.524Z,53
2023-03-11T10:39:00.279Z,53
2023-03-11T10:40:04.963Z,53
2023-03-11T10:41:00.250Z,53
2023-03-11T10:42:00.354Z,53
2023-03-11T10:43:00.287Z,54
2023-03-11T10:44:00.369Z,54
2023-03-11T10:45:04.789Z,54
2023-03-11T10:46:00.471Z,54
2023-03-11T10:47:00.299Z,54
2023-03-11T10:48:00.411Z,53
2023-03-11T10:49:00.302Z,53
2023-03-11T10:50:05.076Z,53
2023-03-11T10:51:00.324Z,53
2023-03-11T10:52:00.404Z,54
2023-03-11T10:53:00.313Z,54
2023-03-11T10:54:00.441Z,54
2023-03-11T10:55:05.371Z,52
2023-03-11T10:56:00.432Z,52
2023-03-11T10:57:00.379Z,52
2023-03-11T10:58:00.476Z,53
2023-03-11T10:59:00.368Z,53
2023-03-11T11:00:04.391Z,53
2023-03-11T11:01:00.445Z,53
2023-03-11T11:02:00.476Z,52
2023-03-11T11:03:00.445Z,52
2023-03-11T11:04:00.513Z,52
2023-03-11T11:05:04.929Z,51
2023-03-11T11:06:00.514Z,51
2023-03-11T11:07:00.442Z,51
2023-03-11T11:08:00.534Z,51
2023-03-11T11:09:00.472Z,51
2023-03-11T11:10:05.272Z,52
2023-03-11T11:11:00.482Z,52
2023-03-11T11:12:00.634Z,51
2023-03-11T11:13:00.492Z,51
2023-03-11T11:14:00.570Z,51
2023-03-11T11:15:04.971Z,52
2023-03-11T11:16:00.620Z,52
2023-03-11T11:17:00.558Z,52
2023-03-11T11:18:00.641Z,50
2023-03-11T11:19:00.512Z,50
2023-03-11T11:20:05.202Z,50
2023-03-11T11:21:00.547Z,49
2023-03-11T11:22:00.633Z,49
2023-03-11T11:23:00.548Z,50
2023-03-11T11:24:00.659Z,50
2023-03-11T11:25:05.080Z,50
2023-03-11T11:26:00.677Z,50
2023-03-11T11:27:00.587Z,50
2023-03-11T11:28:00.674Z,51
2023-03-11T11:29:00.583Z,51
2023-03-11T11:30:05.513Z,51
2023-03-11T11:31:00.705Z,50
2023-03-11T11:32:00.662Z,50
2023-03-11T11:33:00.612Z,51
2023-03-11T11:34:00.697Z,51
2023-03-11T11:35:05.019Z,51
2023-03-11T11:36:00.698Z,51
2023-03-11T11:37:00.620Z,51
2023-03-11T11:38:00.707Z,50
2023-03-11T11:39:00.644Z,50
2023-03-11T11:40:05.781Z,50
2023-03-11T11:41:00.637Z,51
2023-03-11T11:42:00.921Z,51
2023-03-11T11:43:00.659Z,51
2023-03-11T11:44:00.758Z,50
2023-03-11T11:45:05.356Z,50
2023-03-11T11:46:00.785Z,49
2023-03-11T11:47:00.674Z,49
2023-03-11T11:48:00.764Z,48
2023-03-11T11:49:00.700Z,48
2023-03-11T11:50:06.032Z,48
2023-03-11T11:51:00.724Z,48
2023-03-11T11:52:00.823Z,48
2023-03-11T11:53:00.739Z,48
2023-03-11T11:54:00.815Z,49
2023-03-11T11:55:05.120Z,49
2023-03-11T11:56:00.804Z,50
2023-03-11T11:57:00.750Z,50
2023-03-11T11:58:00.866Z,50
2023-03-11T11:59:00.768Z,50
2023-03-11T12:00:05.629Z,50
2023-03-11T12:01:00.779Z,52
2023-03-11T12:02:00.842Z,52
2023-03-11T12:03:00.807Z,52
2023-03-11T12:04:01.000Z,51
2023-03-11T12:05:05.315Z,51
2023-03-11T12:06:00.967Z,51
2023-03-11T12:07:00.807Z,51
2023-03-11T12:08:00.905Z,51
2023-03-11T12:09:00.845Z,51
2023-03-11T12:10:21.469Z,51
2023-03-11T12:11:00.837Z,51
2023-03-11T12:12:00.921Z,51
2023-03-11T12:13:00.849Z,51
2023-03-11T12:14:00.942Z,51
2023-03-11T12:15:05.462Z,51
2023-03-11T12:16:01.114Z,52
2023-03-11T12:17:02.594Z,52
2023-03-11T12:18:00.969Z,51
2023-03-11T12:19:00.902Z,51
2023-03-11T12:20:05.781Z,50
2023-03-11T12:21:00.927Z,50
2023-03-11T12:22:01.011Z,50
2023-03-11T12:23:00.916Z,50
2023-03-11T12:24:01.035Z,50
2023-03-11T12:25:05.519Z,50
2023-03-11T12:26:01.027Z,48
2023-03-11T12:27:00.952Z,48
2023-03-11T12:28:01.039Z,48
2023-03-11T12:29:00.949Z,48
2023-03-11T12:30:06.166Z,48
2023-03-11T12:31:01.012Z,48
2023-03-11T12:32:01.063Z,48
2023-03-11T12:33:01.018Z,48
2023-03-11T12:34:01.134Z,48
2023-03-11T12:35:05.450Z,48
2023-03-11T12:36:01.181Z,48
2023-03-11T12:37:01.010Z,48
2023-03-11T12:38:01.097Z,48
2023-03-11T12:39:01.060Z,46
2023-03-11T12:40:05.732Z,46
2023-03-11T12:41:01.058Z,46
2023-03-11T12:42:01.135Z,47
2023-03-11T12:43:01.046Z,47
2023-03-11T12:44:01.130Z,48
2023-03-11T12:45:06.365Z,48
2023-03-11T12:46:01.168Z,48
2023-03-11T12:47:01.161Z,48
2023-03-11T12:48:01.183Z,48
2023-03-11T12:49:01.074Z,48
2023-03-11T12:50:05.080Z,48
2023-03-11T12:51:01.131Z,48
2023-03-11T12:52:01.209Z,48
2023-03-11T12:53:01.113Z,48
2023-03-11T12:54:01.192Z,49
2023-03-11T12:55:05.607Z,49
2023-03-11T12:56:01.257Z,49
2023-03-11T12:57:01.144Z,48
2023-03-11T12:58:01.225Z,48
2023-03-11T12:59:01.175Z,48
2023-03-11T13:00:05.875Z,48
2023-03-11T13:01:01.206Z,48
2023-03-11T13:02:01.371Z,49
2023-03-11T13:03:01.263Z,49
2023-03-11T13:04:01.281Z,49
2023-03-11T13:05:05.630Z,49
2023-03-11T13:06:01.325Z,49
2023-03-11T13:07:00.234Z,49
2023-03-11T13:08:00.330Z,49
2023-03-11T13:09:00.254Z,49
2023-03-11T13:10:04.073Z,48
2023-03-11T13:11:00.257Z,48
2023-03-11T13:12:00.356Z,48
2023-03-11T13:13:00.268Z,48
2023-03-11T13:14:00.371Z,48
2023-03-11T13:15:04.803Z,49
2023-03-11T13:16:00.402Z,49
2023-03-11T13:17:00.298Z,49
2023-03-11T13:18:00.440Z,49
2023-03-11T13:19:00.324Z,49
2023-03-11T13:20:05.102Z,50
2023-03-11T13:21:00.386Z,50
2023-03-11T13:22:00.453Z,50
2023-03-11T13:23:00.357Z,49
2023-03-11T13:24:00.451Z,49
2023-03-11T13:25:04.785Z,47
2023-03-11T13:26:00.485Z,47
2023-03-11T13:27:01.799Z,48
2023-03-11T13:28:00.458Z,48
2023-03-11T13:29:00.387Z,48
2023-03-11T13:30:05.195Z,48
2023-03-11T13:31:00.404Z,48
2023-03-11T13:32:00.499Z,47
2023-03-11T13:33:00.470Z,47
2023-03-11T13:34:00.534Z,47
2023-03-11T13:35:03.882Z,48
2023-03-11T13:36:00.577Z,48
2023-03-11T13:37:00.435Z,47
2023-03-11T13:38:00.539Z,47
2023-03-11T13:39:00.459Z,48
2023-03-11T13:40:05.809Z,48
2023-03-11T13:41:00.466Z,48
2023-03-11T13:42:00.576Z,48
2023-03-11T13:43:02.344Z,48
2023-03-11T13:44:00.600Z,48
2023-03-11T13:45:05.007Z,47
2023-03-11T13:46:00.731Z,47
2023-03-11T13:47:00.530Z,47
2023-03-11T13:48:00.611Z,46
2023-03-11T13:49:00.526Z,46
2023-03-11T13:50:05.487Z,47
2023-03-11T13:51:00.570Z,47
2023-03-11T13:52:00.636Z,48
2023-03-11T13:53:00.560Z,48
2023-03-11T13:54:00.662Z,48
2023-03-11T13:55:04.161Z,49
2023-03-11T13:56:00.688Z,49
2023-03-11T13:57:00.598Z,48
2023-03-11T13:58:00.698Z,48
2023-03-11T13:59:00.582Z,48
2023-03-11T14:00:05.459Z,46
2023-03-11T14:01:00.687Z,46
2023-03-11T14:02:00.751Z,46
2023-03-11T14:03:00.637Z,46
2023-03-11T14:04:00.780Z,46
2023-03-11T14:05:04.269Z,46
2023-03-11T14:06:00.773Z,46
2023-03-11T14:07:00.795Z,49
2023-03-11T14:08:00.732Z,49
2023-03-11T14:09:00.678Z,49
2023-03-11T14:10:05.435Z,48
2023-03-11T14:11:00.671Z,48
2023-03-11T14:12:00.756Z,47
2023-03-11T14:13:00.668Z,47
2023-03-11T14:14:00.764Z,47
2023-03-11T14:15:05.132Z,47